RYR2KD LEZL-LPPR
Flight info
| Callsign | RYR2KD |
|---|---|
| Flight time | 1h 7m |
| Altitude | 36000 |
| Route | SANTA M744 LASIB DCT ABLEG |
| Aircraft | B738/M-SDGIJ1LRWY/SB1 |
Departure
| Time | 2026-05-01 09:55 |
|---|---|
| Airport | Seville Airport (LEZL) |
Arrival
| Time | 2026-05-01 11:02 |
|---|---|
| Airport | Francisco de Sá Carneiro Airport (LPPR) |
| Time | Latitude | Longitude | Altitude | Speed | Heading |
|---|---|---|---|---|---|
| 2026-05-01 09:36 | 37.42159 | -5.89765 | 91 ft | 0 kts | 315° |
| 2026-05-01 09:47 | 37.42160 | -5.89766 | 90 ft | 1 kts | 315° |
| 2026-05-01 09:47 | 37.42186 | -5.89829 | 91 ft | 15 kts | 261° |
| 2026-05-01 09:48 | 37.42119 | -5.89936 | 90 ft | 15 kts | 227° |
| 2026-05-01 09:48 | 37.42055 | -5.90046 | 88 ft | 15 kts | 257° |
| 2026-05-01 09:48 | 37.41983 | -5.90123 | 87 ft | 13 kts | 249° |
| 2026-05-01 09:48 | 37.41979 | -5.90235 | 87 ft | 12 kts | 268° |
| 2026-05-01 09:49 | 37.41978 | -5.90379 | 86 ft | 21 kts | 271° |
| 2026-05-01 09:49 | 37.41978 | -5.90585 | 84 ft | 23 kts | 270° |
| 2026-05-01 09:49 | 37.41977 | -5.90797 | 81 ft | 24 kts | 270° |
| 2026-05-01 09:49 | 37.41978 | -5.91013 | 81 ft | 24 kts | 270° |
| 2026-05-01 09:50 | 37.41976 | -5.91221 | 79 ft | 21 kts | 264° |
| 2026-05-01 09:50 | 37.41934 | -5.91313 | 77 ft | 11 kts | 202° |
| 2026-05-01 09:50 | 37.41900 | -5.91305 | 77 ft | 0 kts | 155° |
| 2026-05-01 09:53 | 37.41865 | -5.91279 | 77 ft | 16 kts | 139° |
| 2026-05-01 09:53 | 37.41798 | -5.91147 | 77 ft | 18 kts | 111° |
| 2026-05-01 09:53 | 37.41788 | -5.91055 | 79 ft | 0 kts | 91° |
| 2026-05-01 09:54 | 37.41788 | -5.90805 | 81 ft | 65 kts | 89° |
| 2026-05-01 09:54 | 37.41792 | -5.89944 | 87 ft | 128 kts | 89° |
| 2026-05-01 09:54 | 37.41795 | -5.88606 | 220 ft | 166 kts | 90° |
| 2026-05-01 09:55 | 37.41765 | -5.87213 | 903 ft | 163 kts | 93° |
| 2026-05-01 09:55 | 37.41696 | -5.85775 | 1533 ft | 167 kts | 92° |
| 2026-05-01 09:55 | 37.41673 | -5.84291 | 1991 ft | 178 kts | 90° |
| 2026-05-01 09:55 | 37.41689 | -5.82692 | 2440 ft | 189 kts | 89° |
| 2026-05-01 09:56 | 37.41747 | -5.81010 | 2897 ft | 199 kts | 83° |
| 2026-05-01 09:56 | 37.42344 | -5.79379 | 3138 ft | 223 kts | 46° |
| 2026-05-01 09:56 | 37.43745 | -5.78429 | 3566 ft | 238 kts | 11° |
| 2026-05-01 09:56 | 37.45435 | -5.78510 | 3946 ft | 257 kts | 344° |
| 2026-05-01 09:57 | 37.46957 | -5.79674 | 4566 ft | 260 kts | 311° |
| 2026-05-01 09:57 | 37.47884 | -5.81611 | 5092 ft | 270 kts | 285° |
| 2026-05-01 09:57 | 37.47942 | -5.83981 | 5643 ft | 275 kts | 255° |
| 2026-05-01 09:57 | 37.47259 | -5.86147 | 6556 ft | 268 kts | 245° |
| 2026-05-01 09:58 | 37.46677 | -5.88368 | 7151 ft | 277 kts | 264° |
| 2026-05-01 09:58 | 37.47013 | -5.90768 | 7886 ft | 282 kts | 295° |
| 2026-05-01 09:58 | 37.48244 | -5.92680 | 8553 ft | 289 kts | 316° |
| 2026-05-01 09:58 | 37.49755 | -5.94373 | 9332 ft | 291 kts | 315° |
| 2026-05-01 09:59 | 37.51138 | -5.96184 | 10135 ft | 290 kts | 308° |
| 2026-05-01 09:59 | 37.52381 | -5.98250 | 10674 ft | 302 kts | 302° |
| 2026-05-01 09:59 | 37.53525 | -6.00511 | 11206 ft | 313 kts | 299° |
| 2026-05-01 09:59 | 37.54656 | -6.02939 | 11650 ft | 328 kts | 298° |
| 2026-05-01 10:00 | 37.55801 | -6.05433 | 12260 ft | 337 kts | 298° |
| 2026-05-01 10:00 | 37.57000 | -6.08014 | 13090 ft | 339 kts | 298° |
| 2026-05-01 10:00 | 37.58190 | -6.10552 | 13955 ft | 340 kts | 299° |
| 2026-05-01 10:00 | 37.59399 | -6.13115 | 14839 ft | 342 kts | 298° |
| 2026-05-01 10:01 | 37.60590 | -6.15703 | 15659 ft | 345 kts | 298° |
| 2026-05-01 10:01 | 37.61776 | -6.18353 | 16544 ft | 346 kts | 297° |
| 2026-05-01 10:01 | 37.62946 | -6.20996 | 17368 ft | 348 kts | 297° |
| 2026-05-01 10:01 | 37.64114 | -6.23642 | 18155 ft | 350 kts | 297° |
| 2026-05-01 10:02 | 37.65315 | -6.26353 | 18896 ft | 353 kts | 297° |
| 2026-05-01 10:02 | 37.66510 | -6.29041 | 19603 ft | 356 kts | 297° |
| 2026-05-01 10:02 | 37.67725 | -6.31772 | 20302 ft | 359 kts | 297° |
| 2026-05-01 10:02 | 37.68966 | -6.34559 | 20993 ft | 362 kts | 297° |
| 2026-05-01 10:03 | 37.70180 | -6.37287 | 21671 ft | 363 kts | 297° |
| 2026-05-01 10:03 | 37.71435 | -6.40111 | 22263 ft | 367 kts | 297° |
| 2026-05-01 10:03 | 37.72672 | -6.42894 | 22899 ft | 369 kts | 297° |
| 2026-05-01 10:03 | 37.73937 | -6.45740 | 23490 ft | 372 kts | 297° |
| 2026-05-01 10:04 | 37.75205 | -6.48604 | 24091 ft | 374 kts | 297° |
| 2026-05-01 10:04 | 37.76472 | -6.51467 | 24659 ft | 377 kts | 297° |
| 2026-05-01 10:04 | 37.77755 | -6.54372 | 25245 ft | 379 kts | 297° |
| 2026-05-01 10:04 | 37.79040 | -6.57283 | 25778 ft | 381 kts | 297° |
| 2026-05-01 10:05 | 37.80324 | -6.60196 | 26311 ft | 384 kts | 297° |
| 2026-05-01 10:05 | 37.81629 | -6.63159 | 26846 ft | 386 kts | 297° |
| 2026-05-01 10:05 | 37.82943 | -6.66144 | 27396 ft | 387 kts | 296° |
| 2026-05-01 10:05 | 37.84261 | -6.69140 | 27895 ft | 390 kts | 296° |
| 2026-05-01 10:06 | 37.85577 | -6.72135 | 28388 ft | 392 kts | 296° |
| 2026-05-01 10:06 | 37.86897 | -6.75143 | 28814 ft | 396 kts | 296° |
| 2026-05-01 10:06 | 37.88242 | -6.78210 | 29313 ft | 398 kts | 296° |
| 2026-05-01 10:06 | 37.89585 | -6.81275 | 29770 ft | 400 kts | 296° |
| 2026-05-01 10:07 | 37.90935 | -6.84357 | 30198 ft | 403 kts | 296° |
| 2026-05-01 10:07 | 37.92297 | -6.87469 | 30663 ft | 404 kts | 296° |
| 2026-05-01 10:07 | 37.93662 | -6.90589 | 31145 ft | 406 kts | 296° |
| 2026-05-01 10:07 | 37.95018 | -6.93695 | 31648 ft | 406 kts | 296° |
| 2026-05-01 10:08 | 37.97736 | -6.99920 | 33019 ft | 396 kts | 296° |
| 2026-05-01 10:08 | 37.99082 | -7.02911 | 33784 ft | 390 kts | 298° |
| 2026-05-01 10:08 | 38.00631 | -7.05695 | 34346 ft | 389 kts | 304° |
| 2026-05-01 10:09 | 38.02456 | -7.08254 | 34825 ft | 393 kts | 311° |
| 2026-05-01 10:09 | 38.04525 | -7.10533 | 35134 ft | 399 kts | 317° |
| 2026-05-01 10:09 | 38.06850 | -7.12527 | 35489 ft | 405 kts | 323° |
| 2026-05-01 10:09 | 38.09380 | -7.14175 | 35870 ft | 411 kts | 330° |
| 2026-05-01 10:10 | 38.12098 | -7.15435 | 36131 ft | 419 kts | 338° |
| 2026-05-01 10:10 | 38.20844 | -7.17315 | 36130 ft | 422 kts | 342° |
| 2026-05-01 10:11 | 38.26583 | -7.18966 | 36129 ft | 418 kts | 338° |
| 2026-05-01 10:11 | 38.32127 | -7.21158 | 36131 ft | 416 kts | 334° |
| 2026-05-01 10:12 | 38.36692 | -7.23230 | 36130 ft | 416 kts | 333° |
| 2026-05-01 10:13 | 38.45718 | -7.27592 | 36130 ft | 416 kts | 332° |
| 2026-05-01 10:13 | 38.51123 | -7.30254 | 36129 ft | 417 kts | 332° |
| 2026-05-01 10:14 | 38.59285 | -7.34285 | 36132 ft | 418 kts | 333° |
| 2026-05-01 10:14 | 38.64686 | -7.36959 | 36131 ft | 417 kts | 332° |
| 2026-05-01 10:15 | 38.70142 | -7.39663 | 36133 ft | 419 kts | 333° |
| 2026-05-01 10:15 | 38.75577 | -7.42360 | 36135 ft | 419 kts | 332° |
| 2026-05-01 10:16 | 38.81015 | -7.45064 | 36136 ft | 418 kts | 332° |
| 2026-05-01 10:17 | 38.89186 | -7.49133 | 36134 ft | 419 kts | 333° |
| 2026-05-01 10:17 | 38.94619 | -7.51844 | 36289 ft | 423 kts | 333° |
| 2026-05-01 10:17 | 38.97365 | -7.53219 | 35811 ft | 421 kts | 333° |
| 2026-05-01 10:18 | 39.02802 | -7.55936 | 36137 ft | 421 kts | 333° |
| 2026-05-01 10:18 | 39.05526 | -7.57305 | 36139 ft | 426 kts | 333° |
| 2026-05-01 10:19 | 39.11082 | -7.60094 | 36136 ft | 424 kts | 333° |
| 2026-05-01 10:19 | 39.16598 | -7.62862 | 36136 ft | 425 kts | 333° |
| 2026-05-01 10:20 | 39.24899 | -7.67042 | 36148 ft | 425 kts | 332° |
| 2026-05-01 10:20 | 39.30452 | -7.69847 | 36135 ft | 427 kts | 332° |
| 2026-05-01 10:21 | 39.38761 | -7.74049 | 36139 ft | 429 kts | 332° |
| 2026-05-01 10:22 | 39.47089 | -7.78268 | 35886 ft | 423 kts | 332° |
| 2026-05-01 10:22 | 39.52557 | -7.81038 | 34911 ft | 419 kts | 332° |
| 2026-05-01 10:23 | 39.55278 | -7.82426 | 34250 ft | 422 kts | 332° |
| 2026-05-01 10:23 | 39.60715 | -7.85200 | 33171 ft | 415 kts | 332° |
| 2026-05-01 10:23 | 39.63387 | -7.86561 | 32686 ft | 411 kts | 332° |
| 2026-05-01 10:24 | 39.68647 | -7.89243 | 31726 ft | 403 kts | 333° |
| 2026-05-01 10:24 | 39.73803 | -7.91880 | 30784 ft | 395 kts | 333° |
| 2026-05-01 10:25 | 39.78882 | -7.94483 | 29842 ft | 387 kts | 333° |
| 2026-05-01 10:25 | 39.83864 | -7.97039 | 28908 ft | 381 kts | 333° |
| 2026-05-01 10:26 | 39.86330 | -7.98309 | 28441 ft | 378 kts | 333° |
| 2026-05-01 10:26 | 39.88759 | -7.99560 | 27981 ft | 375 kts | 333° |
| 2026-05-01 10:26 | 39.93778 | -8.02164 | 27019 ft | 396 kts | 333° |
| 2026-05-01 10:27 | 39.98860 | -8.04788 | 26024 ft | 391 kts | 333° |
| 2026-05-01 10:27 | 40.03902 | -8.07382 | 25031 ft | 385 kts | 333° |
| 2026-05-01 10:28 | 40.06386 | -8.08663 | 24538 ft | 382 kts | 334° |
| 2026-05-01 10:28 | 40.11278 | -8.11192 | 23558 ft | 376 kts | 333° |
| 2026-05-01 10:28 | 40.13700 | -8.12447 | 23082 ft | 373 kts | 334° |
| 2026-05-01 10:29 | 40.18492 | -8.14932 | 22123 ft | 367 kts | 334° |
| 2026-05-01 10:29 | 40.20869 | -8.16166 | 21628 ft | 365 kts | 334° |
| 2026-05-01 10:30 | 40.25554 | -8.18603 | 20665 ft | 360 kts | 334° |
| 2026-05-01 10:30 | 40.30186 | -8.21015 | 19729 ft | 356 kts | 335° |
| 2026-05-01 10:31 | 40.34766 | -8.23405 | 18741 ft | 352 kts | 335° |
| 2026-05-01 10:31 | 40.39274 | -8.25760 | 17795 ft | 348 kts | 335° |
| 2026-05-01 10:32 | 40.43740 | -8.28101 | 16860 ft | 342 kts | 335° |
| 2026-05-01 10:32 | 40.45935 | -8.29252 | 16383 ft | 340 kts | 335° |
| 2026-05-01 10:32 | 40.50309 | -8.31546 | 15471 ft | 336 kts | 335° |
| 2026-05-01 10:33 | 40.54623 | -8.33805 | 14525 ft | 330 kts | 338° |
| 2026-05-01 10:33 | 40.58979 | -8.33635 | 13733 ft | 312 kts | 29° |
| 2026-05-01 10:34 | 40.60766 | -8.32109 | 13497 ft | 298 kts | 37° |
| 2026-05-01 10:34 | 40.62407 | -8.30457 | 13295 ft | 298 kts | 39° |
| 2026-05-01 10:34 | 40.64053 | -8.28749 | 13122 ft | 299 kts | 39° |
| 2026-05-01 10:35 | 40.67299 | -8.25358 | 12523 ft | 295 kts | 39° |
| 2026-05-01 10:35 | 40.68942 | -8.23741 | 12219 ft | 292 kts | 29° |
| 2026-05-01 10:35 | 40.70859 | -8.23021 | 11878 ft | 290 kts | 358° |
| 2026-05-01 10:35 | 40.72780 | -8.23697 | 11469 ft | 283 kts | 324° |
| 2026-05-01 10:36 | 40.75246 | -8.27539 | 10716 ft | 275 kts | 300° |
| 2026-05-01 10:36 | 40.76266 | -8.29654 | 10318 ft | 275 kts | 299° |
| 2026-05-01 10:36 | 40.77286 | -8.31795 | 9930 ft | 276 kts | 299° |
| 2026-05-01 10:37 | 40.78048 | -8.34092 | 9537 ft | 270 kts | 275° |
| 2026-05-01 10:37 | 40.77403 | -8.38776 | 8900 ft | 258 kts | 250° |
| 2026-05-01 10:37 | 40.76829 | -8.41013 | 8566 ft | 256 kts | 249° |
| 2026-05-01 10:38 | 40.76255 | -8.43216 | 8223 ft | 256 kts | 249° |
| 2026-05-01 10:38 | 40.75678 | -8.45414 | 7919 ft | 254 kts | 249° |
| 2026-05-01 10:38 | 40.75101 | -8.47612 | 7601 ft | 253 kts | 250° |
| 2026-05-01 10:38 | 40.74554 | -8.49814 | 7286 ft | 255 kts | 257° |
| 2026-05-01 10:39 | 40.74529 | -8.52213 | 7054 ft | 267 kts | 278° |
| 2026-05-01 10:39 | 40.75185 | -8.54481 | 6789 ft | 266 kts | 306° |
| 2026-05-01 10:39 | 40.76577 | -8.55988 | 6549 ft | 262 kts | 336° |
| 2026-05-01 10:39 | 40.78342 | -8.56601 | 6314 ft | 260 kts | 351° |
| 2026-05-01 10:40 | 40.80105 | -8.56985 | 6136 ft | 256 kts | 351° |
| 2026-05-01 10:40 | 40.81885 | -8.57386 | 6134 ft | 257 kts | 350° |
| 2026-05-01 10:40 | 40.83640 | -8.57801 | 6137 ft | 258 kts | 350° |
| 2026-05-01 10:40 | 40.85440 | -8.58237 | 5955 ft | 259 kts | 350° |
| 2026-05-01 10:41 | 40.87176 | -8.58660 | 5949 ft | 255 kts | 350° |
| 2026-05-01 10:41 | 40.88942 | -8.59089 | 5944 ft | 257 kts | 350° |
| 2026-05-01 10:41 | 40.92465 | -8.59944 | 5581 ft | 256 kts | 350° |
| 2026-05-01 10:42 | 40.94220 | -8.60370 | 5356 ft | 254 kts | 350° |
| 2026-05-01 10:42 | 40.95991 | -8.60800 | 5130 ft | 255 kts | 350° |
| 2026-05-01 10:42 | 40.97714 | -8.61219 | 4866 ft | 254 kts | 350° |
| 2026-05-01 10:42 | 40.99465 | -8.61643 | 4453 ft | 251 kts | 350° |
| 2026-05-01 10:43 | 41.01174 | -8.62058 | 4168 ft | 247 kts | 350° |
| 2026-05-01 10:43 | 41.02849 | -8.62464 | 3871 ft | 248 kts | 350° |
| 2026-05-01 10:43 | 41.04552 | -8.62880 | 3625 ft | 247 kts | 350° |
| 2026-05-01 10:43 | 41.06235 | -8.63294 | 3376 ft | 245 kts | 350° |
| 2026-05-01 10:44 | 41.07893 | -8.63718 | 3157 ft | 239 kts | 350° |
| 2026-05-01 10:44 | 41.09505 | -8.64142 | 2956 ft | 232 kts | 349° |
| 2026-05-01 10:44 | 41.11082 | -8.64558 | 2641 ft | 231 kts | 349° |
| 2026-05-01 10:44 | 41.12655 | -8.64970 | 2288 ft | 226 kts | 349° |
| 2026-05-01 10:45 | 41.14112 | -8.65352 | 2010 ft | 203 kts | 349° |
| 2026-05-01 10:45 | 41.15443 | -8.65700 | 1765 ft | 182 kts | 348° |
| 2026-05-01 10:45 | 41.16636 | -8.66011 | 1542 ft | 166 kts | 348° |
| 2026-05-01 10:45 | 41.17767 | -8.66306 | 1370 ft | 164 kts | 348° |
| 2026-05-01 10:46 | 41.18852 | -8.66590 | 1100 ft | 153 kts | 347° |
| 2026-05-01 10:46 | 41.19880 | -8.66874 | 761 ft | 152 kts | 346° |
| 2026-05-01 10:46 | 41.20915 | -8.67123 | 643 ft | 151 kts | 347° |
| 2026-05-01 10:46 | 41.21953 | -8.67386 | 523 ft | 152 kts | 347° |
| 2026-05-01 10:47 | 41.22992 | -8.67653 | 338 ft | 150 kts | 347° |
| 2026-05-01 10:47 | 41.24003 | -8.67909 | 222 ft | 141 kts | 347° |
| 2026-05-01 10:47 | 41.24998 | -8.68168 | 511 ft | 157 kts | 347° |
| 2026-05-01 10:47 | 41.26026 | -8.68461 | 1492 ft | 160 kts | 346° |
| 2026-05-01 10:48 | 41.27218 | -8.68898 | 2181 ft | 191 kts | 342° |
| 2026-05-01 10:48 | 41.28442 | -8.69466 | 2990 ft | 198 kts | 341° |
| 2026-05-01 10:48 | 41.29814 | -8.70100 | 3675 ft | 209 kts | 336° |
| 2026-05-01 10:48 | 41.30886 | -8.71290 | 4567 ft | 209 kts | 297° |
| 2026-05-01 10:49 | 41.31109 | -8.73133 | 5344 ft | 209 kts | 254° |
| 2026-05-01 10:49 | 41.30377 | -8.74780 | 5868 ft | 216 kts | 223° |
| 2026-05-01 10:49 | 41.29196 | -8.76202 | 5965 ft | 237 kts | 219° |
| 2026-05-01 10:49 | 41.27918 | -8.77653 | 5960 ft | 245 kts | 219° |
| 2026-05-01 10:50 | 41.26613 | -8.79134 | 5961 ft | 246 kts | 219° |
| 2026-05-01 10:50 | 41.25303 | -8.80616 | 5958 ft | 247 kts | 219° |
| 2026-05-01 10:50 | 41.23881 | -8.81823 | 5957 ft | 244 kts | 196° |
| 2026-05-01 10:50 | 41.22194 | -8.82142 | 5971 ft | 244 kts | 181° |
| 2026-05-01 10:51 | 41.20483 | -8.82155 | 5969 ft | 244 kts | 179° |
| 2026-05-01 10:51 | 41.18798 | -8.82136 | 5960 ft | 245 kts | 179° |
| 2026-05-01 10:51 | 41.17080 | -8.82116 | 5959 ft | 245 kts | 179° |
| 2026-05-01 10:51 | 41.15384 | -8.82095 | 5958 ft | 245 kts | 179° |
| 2026-05-01 10:52 | 41.13669 | -8.82072 | 5959 ft | 244 kts | 179° |
| 2026-05-01 10:52 | 41.11952 | -8.82044 | 5962 ft | 243 kts | 179° |
| 2026-05-01 10:52 | 41.10272 | -8.82013 | 5964 ft | 245 kts | 179° |
| 2026-05-01 10:52 | 41.08549 | -8.81977 | 5960 ft | 244 kts | 179° |
| 2026-05-01 10:53 | 41.06867 | -8.81943 | 5959 ft | 243 kts | 179° |
| 2026-05-01 10:53 | 41.05169 | -8.81912 | 5965 ft | 244 kts | 179° |
| 2026-05-01 10:53 | 41.03459 | -8.81881 | 5963 ft | 244 kts | 179° |
| 2026-05-01 10:53 | 41.01779 | -8.81852 | 5963 ft | 243 kts | 179° |
| 2026-05-01 10:54 | 41.00084 | -8.81824 | 5963 ft | 243 kts | 179° |
| 2026-05-01 10:54 | 40.98391 | -8.81796 | 5962 ft | 244 kts | 179° |
| 2026-05-01 10:54 | 40.96677 | -8.81768 | 5961 ft | 243 kts | 179° |
| 2026-05-01 10:54 | 40.94993 | -8.81740 | 5963 ft | 244 kts | 179° |
| 2026-05-01 10:55 | 40.93264 | -8.81707 | 5974 ft | 256 kts | 179° |
| 2026-05-01 10:55 | 40.91466 | -8.81578 | 5927 ft | 253 kts | 168° |
| 2026-05-01 10:55 | 40.89938 | -8.80540 | 5685 ft | 249 kts | 134° |
| 2026-05-01 10:55 | 40.89177 | -8.78522 | 5442 ft | 248 kts | 97° |
| 2026-05-01 10:56 | 40.89463 | -8.76307 | 5206 ft | 250 kts | 65° |
| 2026-05-01 10:56 | 40.90456 | -8.74425 | 4963 ft | 250 kts | 47° |
| 2026-05-01 10:56 | 40.91795 | -8.72946 | 4708 ft | 250 kts | 32° |
| 2026-05-01 10:56 | 40.93359 | -8.71996 | 4466 ft | 250 kts | 22° |
| 2026-05-01 10:57 | 40.94969 | -8.71085 | 4211 ft | 249 kts | 26° |
| 2026-05-01 10:57 | 40.96510 | -8.70058 | 3962 ft | 247 kts | 28° |
| 2026-05-01 10:57 | 40.98010 | -8.68993 | 3715 ft | 246 kts | 29° |
| 2026-05-01 10:57 | 40.99515 | -8.67920 | 3465 ft | 244 kts | 28° |
| 2026-05-01 10:58 | 41.01014 | -8.66863 | 3217 ft | 242 kts | 28° |
| 2026-05-01 10:58 | 41.02495 | -8.65825 | 2983 ft | 240 kts | 28° |
| 2026-05-01 10:58 | 41.03939 | -8.64814 | 2958 ft | 238 kts | 28° |
| 2026-05-01 10:58 | 41.05441 | -8.63818 | 2954 ft | 241 kts | 23° |
| 2026-05-01 10:59 | 41.07075 | -8.63326 | 2954 ft | 243 kts | 359° |
| 2026-05-01 10:59 | 41.08752 | -8.63688 | 2968 ft | 245 kts | 346° |
| 2026-05-01 10:59 | 41.10393 | -8.64271 | 2911 ft | 245 kts | 346° |
| 2026-05-01 10:59 | 41.12074 | -8.64811 | 2463 ft | 252 kts | 347° |
| 2026-05-01 11:00 | 41.13776 | -8.65282 | 2093 ft | 247 kts | 348° |
| 2026-05-01 11:00 | 41.15410 | -8.65705 | 1778 ft | 225 kts | 348° |
| 2026-05-01 11:00 | 41.16851 | -8.66073 | 1507 ft | 195 kts | 348° |
| 2026-05-01 11:00 | 41.18092 | -8.66391 | 1246 ft | 172 kts | 348° |
| 2026-05-01 11:01 | 41.19197 | -8.66676 | 1038 ft | 152 kts | 348° |
| 2026-05-01 11:01 | 41.20210 | -8.66944 | 852 ft | 149 kts | 347° |
| 2026-05-01 11:01 | 41.21241 | -8.67224 | 655 ft | 148 kts | 347° |
| 2026-05-01 11:01 | 41.22257 | -8.67487 | 449 ft | 148 kts | 348° |
| 2026-05-01 11:02 | 41.23272 | -8.67719 | 280 ft | 149 kts | 347° |
| 2026-05-01 11:02 | 41.24273 | -8.67989 | 203 ft | 133 kts | 348° |
| 2026-05-01 11:02 | 41.24935 | -8.68167 | 184 ft | 65 kts | 350° |
| 2026-05-01 11:02 | 41.25226 | -8.68127 | 177 ft | 16 kts | 19° |
| 2026-05-01 11:03 | 41.25277 | -8.68099 | 176 ft | 3 kts | 38° |
| 2026-05-01 11:03 | 41.25287 | -8.68085 | 176 ft | 0 kts | 56° |
| 2026-05-01 11:03 | 41.25289 | -8.68079 | 176 ft | 3 kts | 66° |
| 2026-05-01 11:03 | 41.25265 | -8.68016 | 179 ft | 13 kts | 157° |
| 2026-05-01 11:04 | 41.25169 | -8.67991 | 182 ft | 14 kts | 170° |
| 2026-05-01 11:04 | 41.25071 | -8.67966 | 187 ft | 13 kts | 167° |
| 2026-05-01 11:04 | 41.24980 | -8.67940 | 191 ft | 13 kts | 168° |
| 2026-05-01 11:04 | 41.24889 | -8.67913 | 194 ft | 13 kts | 162° |
| 2026-05-01 11:05 | 41.24807 | -8.67861 | 197 ft | 13 kts | 150° |
| 2026-05-01 11:05 | 41.24723 | -8.67818 | 201 ft | 14 kts | 167° |
| 2026-05-01 11:05 | 41.24579 | -8.67780 | 205 ft | 22 kts | 168° |
| 2026-05-01 11:05 | 41.24436 | -8.67744 | 209 ft | 19 kts | 169° |
| 2026-05-01 11:06 | 41.24309 | -8.67703 | 212 ft | 17 kts | 147° |
| 2026-05-01 11:06 | 41.24241 | -8.67597 | 218 ft | 12 kts | 127° |
| 2026-05-01 11:06 | 41.24190 | -8.67518 | 223 ft | 12 kts | 135° |
| 2026-05-01 11:07 | 41.24017 | -8.67419 | 229 ft | 0 kts | 171° |
| 2026-05-01 11:07 | 41.23999 | -8.67392 | 230 ft | 8 kts | 113° |
| 2026-05-01 11:07 | 41.23990 | -8.67360 | 232 ft | 0 kts | 108° |
| 2026-05-01 11:07 | 41.23989 | -8.67355 | 233 ft | 2 kts | 108° |
| 2026-05-01 11:08 | 41.23985 | -8.67342 | 233 ft | 3 kts | 107° |
| 2026-05-01 11:08 | 41.23976 | -8.67302 | 235 ft | 2 kts | 108° |
| 2026-05-01 11:08 | 41.23974 | -8.67293 | 235 ft | 0 kts | 109° |